createdAt,value
2017-11-21T00:00:56.856Z,86.96
2017-11-21T00:01:56.842Z,86.49
2017-11-21T00:02:56.833Z,86.58
2017-11-21T00:03:56.819Z,85.82
2017-11-21T00:04:56.798Z,85.16
2017-11-21T00:05:56.785Z,84.97
2017-11-21T00:06:56.785Z,85.53
2017-11-21T00:07:56.758Z,85.06
2017-11-21T00:08:56.744Z,85.25
2017-11-21T00:09:56.732Z,83.73
2017-11-21T00:10:56.714Z,84.30
2017-11-21T00:11:56.700Z,84.49
2017-11-21T00:12:56.694Z,84.11
2017-11-21T00:13:56.680Z,83.92
2017-11-21T00:14:56.657Z,85.25
2017-11-21T00:15:56.643Z,84.40
2017-11-21T00:16:56.628Z,87.72
2017-11-21T00:17:56.617Z,85.82
2017-11-21T00:18:56.607Z,85.44
2017-11-21T00:19:56.585Z,85.25
2017-11-21T00:20:56.572Z,85.82
2017-11-21T00:21:56.571Z,84.87
2017-11-21T00:22:56.545Z,85.35
2017-11-21T00:23:56.538Z,85.06
2017-11-21T00:24:56.515Z,84.97
2017-11-21T00:25:56.500Z,84.83
2017-11-21T00:26:56.492Z,85.11
2017-11-21T00:27:56.481Z,85.11
2017-11-21T00:28:56.458Z,85.49
2017-11-21T00:29:56.442Z,86.16
2017-11-21T00:30:56.439Z,86.16
2017-11-21T00:31:56.424Z,86.35
2017-11-21T00:32:56.405Z,86.91
2017-11-21T00:33:56.389Z,85.49
2017-11-21T00:34:56.380Z,86.63
2017-11-21T00:35:56.359Z,86.44
2017-11-21T00:36:56.343Z,87.58
2017-11-21T00:37:56.329Z,86.07
2017-11-21T00:38:56.315Z,87.39
2017-11-21T00:39:56.306Z,86.91
2017-11-21T00:40:56.299Z,86.25
2017-11-21T00:41:56.272Z,87.11
2017-11-21T00:42:56.257Z,85.72
2017-11-21T00:43:56.242Z,86.16
2017-11-21T00:44:56.227Z,85.35
2017-11-21T00:45:56.213Z,86.44
2017-11-21T00:46:56.202Z,86.58
2017-11-21T00:47:56.184Z,85.97
2017-11-21T00:48:56.172Z,85.30
2017-11-21T00:49:56.163Z,85.02
2017-11-21T00:50:56.143Z,86.25
2017-11-21T00:51:56.132Z,85.97
2017-11-21T00:52:56.120Z,85.53
2017-11-21T00:53:56.106Z,86.01
2017-11-21T00:54:56.100Z,85.82
2017-11-21T00:55:56.072Z,86.68
2017-11-21T00:56:56.056Z,85.16
2017-11-21T00:57:56.049Z,84.40
2017-11-21T00:58:56.037Z,84.40
2017-11-21T00:59:56.021Z,83.88
2017-11-21T01:00:56.008Z,84.26
2017-11-21T01:01:55.993Z,86.49
2017-11-21T01:02:55.970Z,85.16
2017-11-21T01:03:55.963Z,86.20
2017-11-21T01:04:55.949Z,86.20
2017-11-21T01:05:55.928Z,84.49
2017-11-21T01:06:55.912Z,85.35
2017-11-21T01:07:55.899Z,86.96
2017-11-21T01:08:55.883Z,84.49
2017-11-21T01:09:55.870Z,84.97
2017-11-21T01:10:55.858Z,86.11
2017-11-21T01:11:55.845Z,86.20
2017-11-21T01:12:55.832Z,85.72
2017-11-21T01:13:55.827Z,86.01
2017-11-21T01:14:55.814Z,84.40
2017-11-21T01:15:55.783Z,84.21
2017-11-21T01:16:55.775Z,85.25
2017-11-21T01:17:55.756Z,84.59
2017-11-21T01:18:55.744Z,84.21
2017-11-21T01:19:55.735Z,85.44
2017-11-21T01:20:55.712Z,85.16
2017-11-21T01:21:55.697Z,84.01
2017-11-21T01:22:55.697Z,85.44
2017-11-21T01:23:55.675Z,85.35
2017-11-21T01:24:55.660Z,86.30
2017-11-21T01:25:55.646Z,85.72
2017-11-21T01:26:55.633Z,85.16
2017-11-21T01:27:55.613Z,84.01
2017-11-21T01:28:55.606Z,85.82
2017-11-21T01:29:55.592Z,84.59
2017-11-21T01:30:55.569Z,84.68
2017-11-21T01:31:55.557Z,85.16
2017-11-21T01:32:55.553Z,84.59
2017-11-21T01:33:55.525Z,84.40
2017-11-21T01:34:55.517Z,84.87
2017-11-21T01:35:55.497Z,84.87
2017-11-21T01:36:55.493Z,84.49
2017-11-21T01:37:55.471Z,85.06
2017-11-21T01:38:55.460Z,84.59
2017-11-21T01:39:55.453Z,84.59
2017-11-21T01:40:55.438Z,84.59
2017-11-21T01:41:55.426Z,85.35
2017-11-21T01:42:55.405Z,85.25
2017-11-21T01:43:55.386Z,84.40
2017-11-21T01:44:55.384Z,84.68
2017-11-21T01:45:55.362Z,84.87
2017-11-21T01:46:55.351Z,84.68
2017-11-21T01:47:55.327Z,85.40
2017-11-21T01:48:55.312Z,85.21
2017-11-21T01:49:55.299Z,85.97
2017-11-21T01:50:55.291Z,85.68
2017-11-21T01:51:55.277Z,86.16
2017-11-21T01:52:55.261Z,86.30
2017-11-21T01:53:55.260Z,86.07
2017-11-21T01:54:55.233Z,85.82
2017-11-21T01:55:55.227Z,86.49
2017-11-21T01:56:55.198Z,86.58
2017-11-21T01:57:55.194Z,85.63
2017-11-21T01:58:55.179Z,85.78
2017-11-21T01:59:55.156Z,86.49
2017-11-21T02:00:55.147Z,86.49
2017-11-21T02:01:55.130Z,85.91
2017-11-21T02:02:55.124Z,86.30
2017-11-21T02:03:55.106Z,86.11
2017-11-21T02:04:55.087Z,87.34
2017-11-21T02:05:55.071Z,86.72
2017-11-21T02:06:55.075Z,86.11
2017-11-21T02:07:55.044Z,87.05
2017-11-21T02:08:55.035Z,86.49
2017-11-21T02:09:55.028Z,86.20
2017-11-21T02:10:55.009Z,87.24
2017-11-21T02:11:54.991Z,86.39
2017-11-21T02:12:54.978Z,85.35
2017-11-21T02:13:54.965Z,85.06
2017-11-21T02:14:54.945Z,86.39
2017-11-21T02:15:54.933Z,85.16
2017-11-21T02:16:54.921Z,85.25
2017-11-21T02:17:54.904Z,85.63
2017-11-21T02:18:54.895Z,87.34
2017-11-21T02:19:54.882Z,86.39
2017-11-21T02:20:54.859Z,86.96
2017-11-21T02:21:54.845Z,85.16
2017-11-21T02:22:54.830Z,83.83
2017-11-21T02:23:54.825Z,83.64
2017-11-21T02:24:54.811Z,84.01
2017-11-21T02:25:54.797Z,83.45
2017-11-21T02:26:54.775Z,83.07
2017-11-21T02:27:54.762Z,83.92
2017-11-21T02:28:54.747Z,84.21
2017-11-21T02:29:54.742Z,82.97
2017-11-21T02:30:54.724Z,83.36
2017-11-21T02:31:54.703Z,82.97
2017-11-21T02:32:54.689Z,83.26
2017-11-21T02:33:54.679Z,83.45
2017-11-21T02:34:54.663Z,83.64
2017-11-21T02:35:54.656Z,83.36
2017-11-21T02:36:54.636Z,83.73
2017-11-21T02:37:54.621Z,83.92
2017-11-21T02:38:54.606Z,84.59
2017-11-21T02:39:54.600Z,84.49
2017-11-21T02:40:54.578Z,84.21
2017-11-21T02:41:54.572Z,84.49
2017-11-21T02:42:54.550Z,84.87
2017-11-21T02:43:54.538Z,85.35
2017-11-21T02:44:54.526Z,85.63
2017-11-21T02:45:54.520Z,86.87
2017-11-21T02:46:54.493Z,86.49
2017-11-21T02:47:54.484Z,86.20
2017-11-21T02:48:54.467Z,86.01
2017-11-21T02:49:54.454Z,85.82
2017-11-21T02:50:54.440Z,85.72
2017-11-21T02:51:54.443Z,85.91
2017-11-21T02:52:54.411Z,85.25
2017-11-21T02:53:54.396Z,85.16
2017-11-21T02:54:54.388Z,85.35
2017-11-21T02:55:54.374Z,85.82
2017-11-21T02:56:54.367Z,86.01
2017-11-21T02:57:54.346Z,85.91
2017-11-21T02:58:54.326Z,87.82
2017-11-21T02:59:54.325Z,87.15
2017-11-21T03:00:54.299Z,86.39
2017-11-21T03:01:54.285Z,85.82
2017-11-21T03:02:54.270Z,86.30
2017-11-21T03:03:54.256Z,87.43
2017-11-21T03:04:54.248Z,84.97
2017-11-21T03:05:54.229Z,85.35
2017-11-21T03:06:54.213Z,87.24
2017-11-21T03:07:54.210Z,87.15
2017-11-21T03:08:54.191Z,88.48
2017-11-21T03:09:54.178Z,88.39
2017-11-21T03:10:54.159Z,87.82
2017-11-21T03:11:54.152Z,89.53
2017-11-21T03:12:54.136Z,89.33
2017-11-21T03:13:54.122Z,88.67
2017-11-21T03:14:54.103Z,88.67
2017-11-21T03:15:54.094Z,87.82
2017-11-21T03:16:54.075Z,88.76
2017-11-21T03:17:54.062Z,88.10
2017-11-21T03:18:54.046Z,88.57
2017-11-21T03:19:54.039Z,88.39
2017-11-21T03:20:54.018Z,88.76
2017-11-21T03:21:54.005Z,89.33
2017-11-21T03:22:53.994Z,90.19
2017-11-21T03:23:53.991Z,90.85
2017-11-21T03:24:53.968Z,91.61
2017-11-21T03:25:53.954Z,91.61
2017-11-21T03:26:53.935Z,91.47
2017-11-21T03:27:53.929Z,91.19
2017-11-21T03:28:53.908Z,92.42
2017-11-21T03:29:53.901Z,92.33
2017-11-21T03:30:53.881Z,91.94
2017-11-21T03:31:53.873Z,92.04
2017-11-21T03:32:53.849Z,91.75
2017-11-21T03:33:53.836Z,92.52
2017-11-21T03:34:53.833Z,91.85
2017-11-21T03:35:53.809Z,92.52
2017-11-21T03:36:53.796Z,92.52
2017-11-21T03:37:53.781Z,92.52
2017-11-21T03:38:53.769Z,92.52
2017-11-21T03:39:53.751Z,92.23
2017-11-21T03:40:53.746Z,91.66
2017-11-21T03:41:53.725Z,91.75
2017-11-21T03:42:53.722Z,91.28
2017-11-21T03:43:53.704Z,91.85
2017-11-21T03:44:53.683Z,91.38
2017-11-21T03:45:53.670Z,90.81
2017-11-21T03:46:53.665Z,90.14
2017-11-21T03:47:53.647Z,90.05
2017-11-21T03:48:53.640Z,90.33
2017-11-21T03:49:53.625Z,91.38
2017-11-21T03:50:53.597Z,91.28
2017-11-21T03:51:53.584Z,90.71
2017-11-21T03:52:53.570Z,91.38
2017-11-21T03:53:53.564Z,91.94
2017-11-21T03:54:53.547Z,91.09
2017-11-21T03:55:53.532Z,91.47
2017-11-21T03:56:53.522Z,91.47
2017-11-21T03:57:53.514Z,92.04
2017-11-21T03:58:53.484Z,92.04
2017-11-21T03:59:53.479Z,91.09
2017-11-21T04:00:53.455Z,92.04
2017-11-21T04:01:53.449Z,92.33
2017-11-21T04:02:53.433Z,92.33
2017-11-21T04:03:53.417Z,91.47
2017-11-21T04:04:53.399Z,91.19
2017-11-21T04:05:53.385Z,91.47
2017-11-21T04:06:53.375Z,90.62
2017-11-21T04:07:53.361Z,91.00
2017-11-21T04:08:53.340Z,91.00
2017-11-21T04:09:53.337Z,91.09
2017-11-21T04:10:53.327Z,91.94
2017-11-21T04:11:53.300Z,91.56
2017-11-21T04:12:53.296Z,91.47
2017-11-21T04:13:53.286Z,91.28
2017-11-21T04:14:53.268Z,92.14
2017-11-21T04:15:53.244Z,92.80
2017-11-21T04:16:53.229Z,91.66
2017-11-21T04:17:53.222Z,91.38
2017-11-21T04:18:53.202Z,91.19
2017-11-21T04:19:53.192Z,91.28
2017-11-21T04:20:53.186Z,91.85
2017-11-21T04:21:53.160Z,91.28
2017-11-21T04:22:53.155Z,92.04
2017-11-21T04:23:53.144Z,91.66
2017-11-21T04:24:53.117Z,91.85
2017-11-21T04:25:53.112Z,92.14
2017-11-21T04:26:53.098Z,91.47
2017-11-21T04:27:53.087Z,91.75
2017-11-21T04:28:53.068Z,91.75
2017-11-21T04:29:53.053Z,92.14
2017-11-21T04:30:53.038Z,92.04
2017-11-21T04:31:53.024Z,91.99
2017-11-21T04:32:53.004Z,91.89
2017-11-21T04:33:52.992Z,91.28
2017-11-21T04:34:52.976Z,92.14
2017-11-21T04:35:52.967Z,92.09
2017-11-21T04:36:52.954Z,91.19
2017-11-21T04:37:52.935Z,91.94
2017-11-21T04:38:52.919Z,92.04
2017-11-21T04:39:52.905Z,91.85
2017-11-21T04:40:52.904Z,92.23
2017-11-21T04:41:52.877Z,92.33
2017-11-21T04:42:52.867Z,92.33
2017-11-21T04:43:52.849Z,92.33
2017-11-21T04:44:52.836Z,92.04
2017-11-21T04:45:52.823Z,92.99
2017-11-21T04:46:52.826Z,93.08
2017-11-21T04:47:52.802Z,92.80
2017-11-21T04:48:52.781Z,93.18
2017-11-21T04:49:52.765Z,93.27
2017-11-21T04:50:52.761Z,93.84
2017-11-21T04:51:52.741Z,94.60
2017-11-21T04:52:52.731Z,93.94
2017-11-21T04:53:52.710Z,93.27
2017-11-21T04:54:52.701Z,93.08
2017-11-21T04:55:52.684Z,93.46
2017-11-21T04:56:52.671Z,93.94
2017-11-21T04:57:52.663Z,94.03
2017-11-21T04:58:52.642Z,93.65
2017-11-21T04:59:52.631Z,94.03
2017-11-21T05:00:52.617Z,94.03
2017-11-21T05:01:52.593Z,94.13
2017-11-21T05:02:52.581Z,94.60
2017-11-21T05:03:52.567Z,94.51
2017-11-21T05:04:52.553Z,94.03
2017-11-21T05:05:52.542Z,94.13
2017-11-21T05:06:52.525Z,93.56
2017-11-21T05:07:52.512Z,93.56
2017-11-21T05:08:52.497Z,93.46
2017-11-21T05:09:52.490Z,93.75
2017-11-21T05:10:52.471Z,93.56
2017-11-21T05:11:52.454Z,93.75
2017-11-21T05:12:52.441Z,94.70
2017-11-21T05:13:52.425Z,94.70
2017-11-21T05:14:52.417Z,94.89
2017-11-21T05:15:52.406Z,94.98
2017-11-21T05:16:52.381Z,94.60
2017-11-21T05:17:52.369Z,93.94
2017-11-21T05:18:52.357Z,94.51
2017-11-21T05:19:52.340Z,94.32
2017-11-21T05:20:52.334Z,94.51
2017-11-21T05:21:52.315Z,94.23
2017-11-21T05:22:52.309Z,95.65
2017-11-21T05:23:52.281Z,94.79
2017-11-21T05:24:52.285Z,95.36
2017-11-21T05:25:52.257Z,95.27
2017-11-21T05:26:52.247Z,94.70
2017-11-21T05:27:52.225Z,94.70
2017-11-21T05:28:52.211Z,94.42
2017-11-21T05:29:52.196Z,94.89
2017-11-21T05:30:52.191Z,94.79
2017-11-21T05:31:52.179Z,94.23
2017-11-21T05:32:52.154Z,94.42
2017-11-21T05:33:52.140Z,94.42
2017-11-21T05:34:52.125Z,94.42
2017-11-21T05:35:52.122Z,94.79
2017-11-21T05:36:52.102Z,94.98
2017-11-21T05:37:52.091Z,94.13
2017-11-21T05:38:52.076Z,93.56
2017-11-21T05:39:52.064Z,94.60
2017-11-21T05:40:52.041Z,94.51
2017-11-21T05:41:52.028Z,94.60
2017-11-21T05:42:52.023Z,94.70
2017-11-21T05:43:52.004Z,95.36
2017-11-21T05:44:51.998Z,94.89
2017-11-21T05:45:51.973Z,94.89
2017-11-21T05:46:51.966Z,94.70
2017-11-21T05:47:51.950Z,94.98
2017-11-21T05:48:51.930Z,95.74
2017-11-21T05:49:51.922Z,95.46
2017-11-21T05:50:51.901Z,94.98
2017-11-21T05:51:51.895Z,94.60
2017-11-21T05:52:51.870Z,94.70
2017-11-21T05:53:51.858Z,94.23
2017-11-21T05:54:51.848Z,94.23
2017-11-21T05:55:51.829Z,94.70
2017-11-21T05:56:51.822Z,94.23
2017-11-21T05:57:51.807Z,94.70
2017-11-21T05:58:51.787Z,94.13
2017-11-21T05:59:51.778Z,93.94
2017-11-21T06:00:51.760Z,94.03
2017-11-21T06:01:51.749Z,94.03
2017-11-21T06:02:51.737Z,93.75
2017-11-21T06:03:51.718Z,93.75
2017-11-21T06:04:51.698Z,93.37
2017-11-21T06:05:51.685Z,93.84
2017-11-21T06:06:51.676Z,93.37
2017-11-21T06:07:51.662Z,93.08
2017-11-21T06:08:51.646Z,93.08
2017-11-21T06:09:51.630Z,92.99
2017-11-21T06:10:51.613Z,93.84
2017-11-21T06:11:51.596Z,93.56
2017-11-21T06:12:51.588Z,93.56
2017-11-21T06:13:51.578Z,94.03
2017-11-21T06:14:51.571Z,94.32
2017-11-21T06:15:51.555Z,95.07
2017-11-21T06:16:51.533Z,94.89
2017-11-21T06:17:51.512Z,94.60
2017-11-21T06:18:51.512Z,94.89
2017-11-21T06:19:51.493Z,94.79
2017-11-21T06:20:51.474Z,95.36
2017-11-21T06:21:51.462Z,94.89
2017-11-21T06:22:51.449Z,95.17
2017-11-21T06:23:51.435Z,94.98
2017-11-21T06:24:51.420Z,94.60
2017-11-21T06:25:51.402Z,94.32
2017-11-21T06:26:51.387Z,94.79
2017-11-21T06:27:51.373Z,94.70
2017-11-21T06:28:51.359Z,94.98
2017-11-21T06:29:51.350Z,94.70
2017-11-21T06:30:51.329Z,94.70
2017-11-21T06:31:51.315Z,94.79
2017-11-21T06:32:51.300Z,94.89
2017-11-21T06:33:51.283Z,95.27
2017-11-21T06:34:51.271Z,95.55
2017-11-21T06:35:51.266Z,95.36
2017-11-21T06:36:51.248Z,95.36
2017-11-21T06:37:51.230Z,95.65
2017-11-21T06:38:51.220Z,96.03
2017-11-21T06:39:51.197Z,95.65
2017-11-21T06:40:51.186Z,95.93
2017-11-21T06:41:51.168Z,95.46
2017-11-21T06:42:51.163Z,95.27
2017-11-21T06:43:51.155Z,95.84
2017-11-21T06:44:51.134Z,95.46
2017-11-21T06:45:51.112Z,95.55
2017-11-21T06:46:51.097Z,95.74
2017-11-21T06:47:51.084Z,96.12
2017-11-21T06:48:51.083Z,96.50
2017-11-21T06:49:51.066Z,95.36
2017-11-21T06:50:51.039Z,95.55
2017-11-21T06:51:51.025Z,96.03
2017-11-21T06:52:51.008Z,95.27
2017-11-21T06:53:51.003Z,95.36
2017-11-21T06:54:50.993Z,95.46
2017-11-21T06:55:50.968Z,96.50
2017-11-21T06:56:50.954Z,95.07
2017-11-21T06:57:50.957Z,95.36
2017-11-21T06:58:50.933Z,94.89
2017-11-21T06:59:50.912Z,94.98
2017-11-21T07:00:50.909Z,96.41
2017-11-21T07:01:50.885Z,95.84
2017-11-21T07:02:50.882Z,94.79
2017-11-21T07:03:50.860Z,95.27
2017-11-21T07:04:50.845Z,93.84
2017-11-21T07:05:50.833Z,93.84
2017-11-21T07:06:50.820Z,94.23
2017-11-21T07:07:50.798Z,93.56
2017-11-21T07:08:50.783Z,93.75
2017-11-21T07:09:50.766Z,93.37
2017-11-21T07:10:50.751Z,93.08
2017-11-21T07:11:50.740Z,93.27
2017-11-21T07:12:50.728Z,92.99
2017-11-21T07:13:50.709Z,93.27
2017-11-21T07:14:50.697Z,95.46
2017-11-21T07:15:50.686Z,93.65
2017-11-21T07:16:50.663Z,92.99
2017-11-21T07:17:50.653Z,93.65
2017-11-21T07:18:50.635Z,93.65
2017-11-21T07:19:50.621Z,91.85
2017-11-21T07:20:50.605Z,92.33
2017-11-21T07:21:50.593Z,92.42
2017-11-21T07:22:50.579Z,93.18
2017-11-21T07:23:50.561Z,91.85
2017-11-21T07:24:50.554Z,92.61
2017-11-21T07:25:50.534Z,93.08
2017-11-21T07:26:50.525Z,92.99
2017-11-21T07:27:50.514Z,94.03
2017-11-21T07:28:50.504Z,93.27
2017-11-21T07:29:50.476Z,92.99
2017-11-21T07:30:50.462Z,91.94
2017-11-21T07:31:50.450Z,92.90
2017-11-21T07:32:50.438Z,91.85
2017-11-21T07:33:50.423Z,91.19
2017-11-21T07:34:50.404Z,90.52
2017-11-21T07:35:50.395Z,90.43
2017-11-21T07:36:50.374Z,90.43
2017-11-21T07:37:50.365Z,89.58
2017-11-21T07:38:50.353Z,89.95
2017-11-21T07:39:50.330Z,89.20
2017-11-21T07:40:50.315Z,88.72
2017-11-21T07:41:50.310Z,89.48
2017-11-21T07:42:50.289Z,91.19
2017-11-21T07:43:50.284Z,89.95
2017-11-21T07:44:50.263Z,89.72
2017-11-21T07:45:50.243Z,90.47
2017-11-21T07:46:50.229Z,89.33
2017-11-21T07:47:50.220Z,88.39
2017-11-21T07:48:50.199Z,88.01
2017-11-21T07:49:50.198Z,88.20
2017-11-21T07:50:50.170Z,88.20
2017-11-21T07:51:50.164Z,89.43
2017-11-21T07:52:50.143Z,88.20
2017-11-21T07:53:50.135Z,88.29
2017-11-21T07:54:50.113Z,87.91
2017-11-21T07:55:50.097Z,88.01
2017-11-21T07:56:50.084Z,88.01
2017-11-21T07:57:50.071Z,88.39
2017-11-21T07:58:50.057Z,88.48
2017-11-21T07:59:50.042Z,87.82
2017-11-21T08:00:50.026Z,87.43
2017-11-21T08:01:50.022Z,88.01
2017-11-21T08:02:49.999Z,86.49
2017-11-21T08:03:49.982Z,86.49
2017-11-21T08:04:49.998Z,87.24
2017-11-21T08:05:49.956Z,88.39
2017-11-21T08:06:49.942Z,86.96
2017-11-21T08:07:49.927Z,86.63
2017-11-21T08:08:49.917Z,85.72
2017-11-21T08:09:49.898Z,84.63
2017-11-21T08:10:49.886Z,86.15
2017-11-21T08:11:49.876Z,87.48
2017-11-21T08:12:49.858Z,84.72
2017-11-21T08:13:49.849Z,85.11
2017-11-21T08:14:49.836Z,84.34
2017-11-21T08:15:49.817Z,84.53
2017-11-21T08:16:49.808Z,84.25
2017-11-21T08:17:49.786Z,83.20
2017-11-21T08:18:49.783Z,82.82
2017-11-21T08:19:49.760Z,83.01
2017-11-21T08:20:49.750Z,83.59
2017-11-21T08:21:49.745Z,83.11
2017-11-21T08:22:49.717Z,83.59
2017-11-21T08:23:49.703Z,83.97
2017-11-21T08:24:49.689Z,83.11
2017-11-21T08:25:49.685Z,84.44
2017-11-21T08:26:49.678Z,83.30
2017-11-21T08:27:49.660Z,83.39
2017-11-21T08:28:49.639Z,82.92
2017-11-21T08:29:49.624Z,83.30
2017-11-21T08:30:49.616Z,83.39
2017-11-21T08:31:49.594Z,83.49
2017-11-21T08:32:49.579Z,82.82
2017-11-21T08:33:49.569Z,82.64
2017-11-21T08:34:49.558Z,83.39
2017-11-21T08:35:49.549Z,82.35
2017-11-21T08:36:49.535Z,82.82
2017-11-21T08:37:49.530Z,83.11
2017-11-21T08:38:49.500Z,83.30
2017-11-21T08:39:49.495Z,82.64
2017-11-21T08:40:49.471Z,83.01
2017-11-21T08:41:49.460Z,82.92
2017-11-21T08:42:49.462Z,82.92
2017-11-21T08:43:49.433Z,83.53
2017-11-21T08:44:49.425Z,82.29
2017-11-21T08:45:49.405Z,81.92
2017-11-21T08:46:49.396Z,81.35
2017-11-21T08:47:49.379Z,82.58
2017-11-21T08:48:49.372Z,82.77
2017-11-21T08:49:49.353Z,82.29
2017-11-21T08:50:49.349Z,82.10
2017-11-21T08:51:49.334Z,84.20
2017-11-21T08:52:49.321Z,83.34
2017-11-21T08:53:49.302Z,82.39
2017-11-21T08:54:49.289Z,82.96
2017-11-21T08:55:49.280Z,80.87
2017-11-21T08:56:49.263Z,81.06
2017-11-21T08:57:49.247Z,81.35
2017-11-21T08:58:49.248Z,81.82
2017-11-21T08:59:49.230Z,81.86
2017-11-21T09:00:49.208Z,83.10
2017-11-21T09:01:49.202Z,80.82
2017-11-21T09:02:49.189Z,80.34
2017-11-21T09:03:49.169Z,79.68
2017-11-21T09:04:49.159Z,79.01
2017-11-21T09:05:49.154Z,78.06
2017-11-21T09:06:49.137Z,77.87
2017-11-21T09:07:49.115Z,80.15
2017-11-21T09:08:49.105Z,79.68
2017-11-21T09:09:49.092Z,79.49
2017-11-21T09:10:49.082Z,79.20
2017-11-21T09:11:49.069Z,78.25
2017-11-21T09:12:49.054Z,77.49
2017-11-21T09:13:49.047Z,78.53
2017-11-21T09:14:49.030Z,77.68
2017-11-21T09:15:49.016Z,76.16
2017-11-21T09:16:49.004Z,76.01
2017-11-21T09:17:48.992Z,78.19
2017-11-21T09:18:48.979Z,75.81
2017-11-21T09:19:48.969Z,77.81
2017-11-21T09:20:48.954Z,75.96
2017-11-21T09:21:48.940Z,76.82
2017-11-21T09:22:48.946Z,75.53
2017-11-21T09:23:48.925Z,76.57
2017-11-21T09:24:48.905Z,76.48
2017-11-21T09:25:48.899Z,76.48
2017-11-21T09:26:48.888Z,76.57
2017-11-21T09:27:48.871Z,77.43
2017-11-21T09:28:48.869Z,77.91
2017-11-21T09:29:48.851Z,77.53
2017-11-21T09:30:48.840Z,75.81
2017-11-21T09:31:48.819Z,76.29
2017-11-21T09:32:48.813Z,76.20
2017-11-21T09:33:48.796Z,77.43
2017-11-21T09:34:48.799Z,76.01
2017-11-21T09:35:48.773Z,75.53
2017-11-21T09:36:48.775Z,76.57
2017-11-21T09:37:48.755Z,74.67
2017-11-21T09:38:48.738Z,75.53
2017-11-21T09:39:48.736Z,75.43
2017-11-21T09:40:48.717Z,75.81
2017-11-21T09:41:48.698Z,75.91
2017-11-21T09:42:48.692Z,74.87
2017-11-21T09:43:48.674Z,75.15
2017-11-21T09:44:48.662Z,75.53
2017-11-21T09:45:48.664Z,75.53
2017-11-21T09:46:48.641Z,75.15
2017-11-21T09:47:48.636Z,75.62
2017-11-21T09:48:48.624Z,77.72
2017-11-21T09:49:48.603Z,77.56
2017-11-21T09:50:48.592Z,72.71
2017-11-21T09:51:48.589Z,74.14
2017-11-21T09:52:48.575Z,72.24
2017-11-21T09:53:48.559Z,73.19
2017-11-21T09:54:48.545Z,73.25
2017-11-21T09:55:48.545Z,74.04
2017-11-21T09:56:48.520Z,74.43
2017-11-21T09:57:48.522Z,73.82
2017-11-21T09:58:48.505Z,76.01
2017-11-21T09:59:48.487Z,75.28
2017-11-21T10:00:48.476Z,73.15
2017-11-21T10:01:48.464Z,75.15
2017-11-21T10:02:48.451Z,74.67
2017-11-21T10:03:48.441Z,73.38
2017-11-21T10:04:48.434Z,73.95
2017-11-21T10:05:48.416Z,74.10
2017-11-21T10:06:48.409Z,73.85
2017-11-21T10:07:48.397Z,75.47
2017-11-21T10:08:48.387Z,75.19
2017-11-21T10:09:48.370Z,74.24
2017-11-21T10:10:48.368Z,73.85
2017-11-21T10:11:48.346Z,73.19
2017-11-21T10:12:48.344Z,74.14
2017-11-21T10:13:48.322Z,72.71
2017-11-21T10:14:48.311Z,71.95
2017-11-21T10:15:48.300Z,72.14
2017-11-21T10:16:48.287Z,72.81
2017-11-21T10:17:48.290Z,73.66
2017-11-21T10:18:48.265Z,73.00
2017-11-21T10:19:48.261Z,72.62
2017-11-21T10:20:48.242Z,71.09
2017-11-21T10:21:48.231Z,70.81
2017-11-21T10:22:48.220Z,72.90
2017-11-21T10:23:48.208Z,72.05
2017-11-21T10:24:48.196Z,70.90
2017-11-21T10:25:48.193Z,70.90
2017-11-21T10:26:48.174Z,70.33
2017-11-21T10:27:48.162Z,71.38
2017-11-21T10:28:48.157Z,71.28
2017-11-21T10:29:48.138Z,70.90
2017-11-21T10:30:48.128Z,70.56
2017-11-21T10:31:48.143Z,70.08
2017-11-21T10:32:48.104Z,71.03
2017-11-21T10:33:48.094Z,68.56
2017-11-21T10:34:48.099Z,68.08
2017-11-21T10:35:48.079Z,68.08
2017-11-21T10:36:48.072Z,68.08
2017-11-21T10:37:48.054Z,69.13
2017-11-21T10:38:48.037Z,68.27
2017-11-21T10:39:48.031Z,68.08
2017-11-21T10:40:48.014Z,69.32
2017-11-21T10:41:48.011Z,67.76
2017-11-21T10:42:47.995Z,67.29
2017-11-21T10:43:47.995Z,67.19
2017-11-21T10:44:47.968Z,71.09
2017-11-21T10:45:47.963Z,70.08
2017-11-21T10:46:47.956Z,67.22
2017-11-21T10:47:47.940Z,68.27
2017-11-21T10:48:47.926Z,68.18
2017-11-21T10:49:47.915Z,71.03
2017-11-21T10:50:47.903Z,69.32
2017-11-21T10:51:47.891Z,68.37
2017-11-21T10:52:47.883Z,68.46
2017-11-21T10:53:47.871Z,70.56
2017-11-21T10:54:47.867Z,68.37
2017-11-21T10:55:47.853Z,67.03
2017-11-21T10:56:47.845Z,69.60
2017-11-21T10:57:47.833Z,68.65
2017-11-21T10:58:47.823Z,67.80
2017-11-21T10:59:47.820Z,68.27
2017-11-21T11:00:47.794Z,65.99
2017-11-21T11:01:47.788Z,66.33
2017-11-21T11:02:47.769Z,66.14
2017-11-21T11:03:47.766Z,66.37
2017-11-21T11:04:47.755Z,66.56
2017-11-21T11:05:47.735Z,66.85
2017-11-21T11:06:47.726Z,66.66
2017-11-21T11:07:47.712Z,65.89
2017-11-21T11:08:47.713Z,67.80
2017-11-21T11:09:47.703Z,68.18
2017-11-21T11:10:47.690Z,67.32
2017-11-21T11:11:47.667Z,65.61
2017-11-21T11:12:47.660Z,65.23
2017-11-21T11:13:47.651Z,67.22
2017-11-21T11:14:47.639Z,66.66
2017-11-21T11:15:47.625Z,67.41
2017-11-21T11:16:47.621Z,65.13
2017-11-21T11:17:47.612Z,67.22
2017-11-21T11:18:47.598Z,69.32
2017-11-21T11:19:47.589Z,67.32
2017-11-21T11:20:47.573Z,67.89
2017-11-21T11:21:47.568Z,66.08
2017-11-21T11:22:47.549Z,65.23
2017-11-21T11:23:47.539Z,64.94
2017-11-21T11:24:47.527Z,65.23
2017-11-21T11:25:47.528Z,64.56
2017-11-21T11:26:47.505Z,64.50
2017-11-21T11:27:47.494Z,65.55
2017-11-21T11:28:47.485Z,65.55
2017-11-21T11:29:47.479Z,65.55
2017-11-21T11:30:47.490Z,65.03
2017-11-21T11:31:47.452Z,65.07
2017-11-21T11:32:47.440Z,65.45
2017-11-21T11:33:47.444Z,66.31
2017-11-21T11:34:47.419Z,66.69
2017-11-21T11:35:47.409Z,66.50
2017-11-21T11:36:47.399Z,67.45
2017-11-21T11:37:47.394Z,65.64
2017-11-21T11:38:47.382Z,65.16
2017-11-21T11:39:47.366Z,66.97
2017-11-21T11:40:47.357Z,67.16
2017-11-21T11:41:47.354Z,66.69
2017-11-21T11:42:47.345Z,67.26
2017-11-21T11:43:47.336Z,67.35
2017-11-21T11:44:47.313Z,65.64
2017-11-21T11:45:47.318Z,64.97
2017-11-21T11:46:47.295Z,68.50
2017-11-21T11:47:47.296Z,66.59
2017-11-21T11:48:47.274Z,65.55
2017-11-21T11:49:47.261Z,65.16
2017-11-21T11:50:47.252Z,65.45
2017-11-21T11:51:47.244Z,64.69
2017-11-21T11:52:47.234Z,66.50
2017-11-21T11:53:47.221Z,63.92
2017-11-21T11:54:47.222Z,63.17
2017-11-21T11:55:47.205Z,63.07
2017-11-21T11:56:47.187Z,65.55
2017-11-21T11:57:47.178Z,65.16
2017-11-21T11:58:47.167Z,65.16
2017-11-21T11:59:47.160Z,64.97
2017-11-21T12:00:47.152Z,64.97
2017-11-21T12:01:47.148Z,63.26
2017-11-21T12:02:47.131Z,64.21
2017-11-21T12:03:47.119Z,64.31
2017-11-21T12:04:47.104Z,65.16
2017-11-21T12:05:47.093Z,64.02
2017-11-21T12:06:47.084Z,65.26
2017-11-21T12:07:47.072Z,65.36
2017-11-21T12:08:47.067Z,65.07
2017-11-21T12:09:47.051Z,65.16
2017-11-21T12:10:47.042Z,66.50
2017-11-21T12:11:47.038Z,65.16
2017-11-21T12:12:47.019Z,65.36
2017-11-21T12:13:47.009Z,64.69
2017-11-21T12:14:47.007Z,65.73
2017-11-21T12:15:46.992Z,65.55
2017-11-21T12:16:46.985Z,64.78
2017-11-21T12:17:46.965Z,65.36
2017-11-21T12:18:46.966Z,67.26
2017-11-21T12:19:46.946Z,66.50
2017-11-21T12:20:46.936Z,65.16
2017-11-21T12:21:46.924Z,65.55
2017-11-21T12:22:46.916Z,66.88
2017-11-21T12:23:46.903Z,67.55
2017-11-21T12:24:46.898Z,66.69
2017-11-21T12:25:46.882Z,66.59
2017-11-21T12:26:46.878Z,66.85
2017-11-21T12:27:46.872Z,66.56
2017-11-21T12:28:46.852Z,66.46
2017-11-21T12:29:46.842Z,67.22
2017-11-21T12:30:46.832Z,69.04
2017-11-21T12:31:46.824Z,68.21
2017-11-21T12:32:46.810Z,67.32
2017-11-21T12:33:46.801Z,67.35
2017-11-21T12:34:46.791Z,66.37
2017-11-21T12:35:46.777Z,65.23
2017-11-21T12:36:46.769Z,65.61
2017-11-21T12:37:46.757Z,66.37
2017-11-21T12:38:46.748Z,68.21
2017-11-21T12:39:46.734Z,65.36
2017-11-21T12:40:46.724Z,65.45
2017-11-21T12:41:46.714Z,65.26
2017-11-21T12:42:46.705Z,64.69
2017-11-21T12:43:46.694Z,64.59
2017-11-21T12:44:46.689Z,65.26
2017-11-21T12:45:46.675Z,64.02
2017-11-21T12:46:46.668Z,64.40
2017-11-21T12:47:46.663Z,66.69
2017-11-21T12:48:46.641Z,65.39
2017-11-21T12:49:46.638Z,64.81
2017-11-21T12:50:46.622Z,65.86
2017-11-21T12:51:46.611Z,65.39
2017-11-21T12:52:46.602Z,65.29